Flight Number: EUR1312 Duration: 3:40
Departure: Gatwick Airport (EGKK) at 06:00 Distance: 1344 Nm
Arrival: Istanbul / Ataturk (LTBA) at 09:40 Equipment: A330-200

Weather Information
London / Gatwick Airport, United Kingdom (EGKK) 51-09N 000-11W 0M Oct 19, 2018 - 02:20 PM EDT / 2018.10.19 1820 UTC
Wind: Variable at 2 MPH (2 KT):0
Visibility: greater than 7 mile(s):0 Temperature: 51 F (11 C) Dew Point: 44 F (7 C) Relative Humidity: 76% Pressure (altimeter): 30.33 in. Hg (1027 hPa)
ob: EGKK 191820Z VRB02KT CAVOK 11/07 Q1027 cycle: 18
Sunrise: 06:35 Sunset: 16:55 (UTC)

Istanbul / Ataturk, Turkey (LTBA) 40-58N 028-49E 37M Oct 19, 2018 - 02:20 PM EDT / 2018.10.19 1820 UTC
Wind: from the NE (050 degrees) at 7 MPH (6 KT) (direction variable):0
Visibility: greater than 7 mile(s):0
Sky conditions: mostly cloudy Temperature: 68 F (20 C) Dew Point: 59 F (15 C) Relative Humidity: 72% Pressure (altimeter): 30.03 in. Hg (1017 hPa)
ob: LTBA 191820Z 05006KT 350V110 9999 BKN038 20/15 Q1017 NOSIG cycle: 18
Sunrise: 04:24 Sunset: 15:15 (UTC)

TAF:2018/10/19 18:03 TAF LTBA 191640Z 1918/2024 03007KT 9999 BKN032 BECMG 1919/1922 FEW025 BECMG 1923/2002 FEW015 BKN027 PROB30 2002/2006 4000 BR TEMPO 2008/2012 -SHRA BECMG 2013/2017 SCT033 PROB40 TEMPO 2020/2024 -TSRA FEW020CB BKN027

Previous Pireps for this route
Date Aircraft Flight time Fuel used Landing rate On time
2013-03-24A330-2003.4241106-154No
2013-11-13A330-2003.42386800No
2015-04-09B74703.2169932-234Charter
2015-04-10CRJ7003.19112080Charter
2015-05-23B757-200PF04.0134471-645Charter
2016-01-27B7773.2067361-239Charter
2017-03-17A330-2003.25352730No
(pireps marked green are flown by you)

Route map